createdAt,value
2023-10-02T00:01:57.304Z,83.45
2023-10-02T00:04:26.122Z,81.51
2023-10-02T00:07:09.821Z,81.93
2023-10-02T00:09:39.383Z,82.68
2023-10-02T00:12:14.062Z,83.50
2023-10-02T00:14:43.648Z,84.39
2023-10-02T00:17:20.273Z,85.50
2023-10-02T00:19:51.168Z,86.81
2023-10-02T00:22:39.904Z,87.47
2023-10-02T00:25:18.191Z,88.27
2023-10-02T00:27:48.481Z,89.35
2023-10-02T00:30:17.740Z,89.42
2023-10-02T00:32:47.633Z,89.59
2023-10-02T00:35:16.549Z,90.14
2023-10-02T00:37:46.315Z,89.89
2023-10-02T00:40:32.467Z,89.77
2023-10-02T00:43:01.518Z,89.69
2023-10-02T00:45:40.416Z,89.83
2023-10-02T00:48:27.356Z,90.38
2023-10-02T00:51:00.021Z,92.10
2023-10-02T00:53:40.809Z,92.39
2023-10-02T00:56:23.069Z,91.76
2023-10-02T00:58:57.377Z,91.79
2023-10-02T01:04:26.088Z,92.73
2023-10-02T01:07:06.843Z,92.54
2023-10-02T01:09:37.997Z,92.46
2023-10-02T01:12:05.537Z,92.34
2023-10-02T01:14:51.108Z,92.14
2023-10-02T01:17:19.211Z,92.12
2023-10-02T01:19:57.885Z,92.41
2023-10-02T01:22:30.110Z,92.39
2023-10-02T01:25:18.541Z,93.04
2023-10-02T01:27:52.102Z,93.14
2023-10-02T01:30:23.949Z,93.82
2023-10-02T01:33:14.010Z,93.83
2023-10-02T01:36:00.344Z,93.31
2023-10-02T01:38:32.518Z,92.82
2023-10-02T01:41:05.089Z,92.60
2023-10-02T01:43:34.709Z,93.23
2023-10-02T01:46:07.967Z,93.13
2023-10-02T01:48:43.262Z,93.25
2023-10-02T01:51:22.274Z,93.55
2023-10-02T01:53:53.450Z,93.67
2023-10-02T01:56:21.551Z,93.88
2023-10-02T01:58:53.243Z,93.53
2023-10-02T02:01:22.336Z,93.37
2023-10-02T02:03:51.949Z,93.77
2023-10-02T02:06:25.298Z,93.46
2023-10-02T02:09:02.997Z,93.96
2023-10-02T02:11:36.307Z,93.54
2023-10-02T02:14:05.895Z,92.98
2023-10-02T02:16:35.735Z,93.41
2023-10-02T02:19:09.523Z,93.34
2023-10-02T02:21:37.164Z,93.49
2023-10-02T02:24:09.110Z,93.81
2023-10-02T02:26:39.392Z,93.82
2023-10-02T02:29:26.108Z,94.38
2023-10-02T02:31:56.762Z,93.88
2023-10-02T02:34:25.159Z,93.02
2023-10-02T02:36:52.749Z,92.57
2023-10-02T02:39:24.308Z,93.13
2023-10-02T02:42:13.266Z,92.50
2023-10-02T02:44:47.202Z,93.43
2023-10-02T02:47:16.499Z,92.71
2023-10-02T02:50:00.082Z,93.07
2023-10-02T02:52:34.160Z,93.56
2023-10-02T02:55:06.685Z,93.60
2023-10-02T02:57:39.959Z,93.72
2023-10-02T03:00:27.471Z,93.96
2023-10-02T03:03:01.686Z,93.45
2023-10-02T03:05:42.626Z,94.00
2023-10-02T03:08:15.962Z,93.25
2023-10-02T03:10:48.083Z,93.77
2023-10-02T03:13:18.424Z,93.93
2023-10-02T03:15:53.039Z,93.57
2023-10-02T03:18:32.838Z,94.26
2023-10-02T03:21:15.723Z,93.98
2023-10-02T03:23:45.761Z,94.95
2023-10-02T03:26:49.657Z,95.00
2023-10-02T03:29:24.073Z,95.42
2023-10-02T03:31:52.632Z,95.27
2023-10-02T03:34:32.010Z,95.81
2023-10-02T03:37:02.003Z,95.58
2023-10-02T03:39:52.412Z,95.10
2023-10-02T03:42:27.297Z,95.43
2023-10-02T03:44:58.203Z,95.76
2023-10-02T03:47:27.539Z,95.28
2023-10-02T03:50:02.677Z,95.24
2023-10-02T03:52:33.081Z,95.71
2023-10-02T03:55:16.485Z,95.61
2023-10-02T03:57:57.083Z,94.80
2023-10-02T04:14:59.010Z,91.44
2023-10-02T04:17:36.188Z,90.91
2023-10-02T04:20:06.977Z,92.11
2023-10-02T04:22:36.810Z,93.09
2023-10-02T04:25:06.930Z,93.85
2023-10-02T04:27:44.873Z,94.96
2023-10-02T04:30:17.057Z,94.97
2023-10-02T04:32:53.110Z,95.29
2023-10-02T04:35:39.484Z,96.42
2023-10-02T04:38:10.059Z,95.66
2023-10-02T04:40:53.315Z,96.03
2023-10-02T04:43:30.247Z,97.06
2023-10-02T04:46:10.033Z,97.62
2023-10-02T04:48:48.203Z,96.93
2023-10-02T04:51:17.563Z,99.16
2023-10-02T04:53:47.299Z,98.41
2023-10-02T04:56:20.589Z,98.81
2023-10-02T04:58:58.764Z,97.10
2023-10-02T05:01:31.114Z,96.49
2023-10-02T05:04:04.760Z,94.18
2023-10-02T05:07:05.106Z,92.47
2023-10-02T05:09:40.011Z,90.43
2023-10-02T05:12:07.956Z,88.43
2023-10-02T05:14:46.340Z,86.46
2023-10-02T05:17:20.152Z,84.45
2023-10-02T05:20:05.133Z,83.04
2023-10-02T05:22:34.094Z,80.37
2023-10-02T05:25:01.619Z,78.33
2023-10-02T05:27:38.356Z,76.60
2023-10-02T05:30:15.439Z,75.44
2023-10-02T05:32:43.257Z,73.15
2023-10-02T05:35:13.950Z,71.77
2023-10-02T05:37:43.478Z,70.88
2023-10-02T05:40:34.936Z,69.65
2023-10-02T05:43:02.215Z,65.75
2023-10-02T05:45:48.632Z,65.00
2023-10-02T05:48:28.117Z,63.44
2023-10-02T05:51:00.892Z,62.65
2023-10-02T05:53:33.938Z,61.21
2023-10-02T05:56:07.682Z,60.53
2023-10-02T05:58:40.819Z,59.26
2023-10-02T06:01:20.370Z,57.49
2023-10-02T06:04:02.690Z,56.61
2023-10-02T06:06:37.961Z,57.22
2023-10-02T06:09:14.870Z,54.76
2023-10-02T06:12:01.379Z,54.64
2023-10-02T06:14:28.632Z,54.14
2023-10-02T06:16:55.979Z,53.63
2023-10-02T06:19:23.610Z,52.50
2023-10-02T06:22:06.290Z,51.99
2023-10-02T06:24:33.472Z,50.08
2023-10-02T06:27:05.956Z,48.10
2023-10-02T06:29:37.543Z,49.36
2023-10-02T06:32:21.860Z,49.08
2023-10-02T06:34:52.116Z,48.04
2023-10-02T06:37:22.937Z,46.80
2023-10-02T06:40:25.595Z,45.05
2023-10-02T06:42:59.040Z,47.31
2023-10-02T06:45:28.350Z,45.76
2023-10-02T06:47:58.135Z,46.39
2023-10-02T06:50:29.304Z,45.85
2023-10-02T06:52:56.950Z,44.72
2023-10-02T06:55:26.243Z,44.00
2023-10-02T06:57:58.064Z,44.84
2023-10-02T07:00:37.779Z,43.59
2023-10-02T07:03:05.786Z,42.44
2023-10-02T07:05:36.050Z,42.33
2023-10-02T07:08:45.204Z,43.24
2023-10-02T07:11:12.711Z,41.90
2023-10-02T07:13:52.612Z,41.65
2023-10-02T07:16:19.838Z,41.55
2023-10-02T07:18:54.920Z,41.33
2023-10-02T07:21:23.199Z,40.47
2023-10-02T07:23:50.593Z,40.38
2023-10-02T07:26:40.024Z,40.61
2023-10-02T07:29:08.028Z,39.57
2023-10-02T07:31:36.062Z,40.23
2023-10-02T07:34:03.669Z,39.89
2023-10-02T07:36:34.428Z,39.84
2023-10-02T07:39:24.076Z,39.84
2023-10-02T07:42:01.626Z,40.60
2023-10-02T07:44:38.948Z,40.03
2023-10-02T07:47:12.628Z,38.85
2023-10-02T07:49:41.436Z,38.77
2023-10-02T07:52:09.396Z,40.40
2023-10-02T07:54:45.908Z,39.24
2023-10-02T07:57:15.920Z,39.90
2023-10-02T07:59:45.224Z,38.52
2023-10-02T08:02:38.901Z,38.75
2023-10-02T08:05:06.330Z,38.31
2023-10-02T08:07:44.552Z,37.85
2023-10-02T08:10:17.374Z,37.73
2023-10-02T08:12:57.433Z,38.53
2023-10-02T08:15:28.088Z,38.41
2023-10-02T08:17:55.643Z,38.02
2023-10-02T08:20:33.696Z,37.93
2023-10-02T08:23:03.650Z,38.25
2023-10-02T08:25:31.066Z,38.05
2023-10-02T08:27:59.049Z,38.16
2023-10-02T08:30:36.525Z,38.80
2023-10-02T08:33:25.455Z,38.18
2023-10-02T08:35:59.881Z,37.77
2023-10-02T08:38:29.732Z,38.47
2023-10-02T08:41:04.369Z,38.09
2023-10-02T08:43:44.877Z,38.38
2023-10-02T08:46:20.505Z,36.88
2023-10-02T08:48:58.222Z,37.01
2023-10-02T08:51:34.900Z,37.58
2023-10-02T08:54:07.036Z,38.05
2023-10-02T08:56:50.342Z,37.75
2023-10-02T08:59:20.245Z,36.50
2023-10-02T09:01:51.652Z,36.77
2023-10-02T09:04:28.099Z,36.81
2023-10-02T09:06:59.757Z,36.36
2023-10-02T09:09:36.195Z,37.55
2023-10-02T09:12:05.062Z,37.38
2023-10-02T09:14:35.073Z,36.67
2023-10-02T09:17:23.563Z,37.02
2023-10-02T09:20:01.809Z,35.53
2023-10-02T09:22:29.605Z,35.69
2023-10-02T09:24:59.022Z,36.67
2023-10-02T09:27:39.705Z,36.72
2023-10-02T09:30:23.348Z,37.06
2023-10-02T09:32:53.535Z,37.88
2023-10-02T09:35:52.286Z,37.60
2023-10-02T09:38:18.684Z,36.80
2023-10-02T09:41:02.944Z,36.19
2023-10-02T09:43:34.594Z,36.66
2023-10-02T09:46:07.646Z,37.62
2023-10-02T09:48:59.232Z,37.38
2023-10-02T09:51:32.179Z,37.39
2023-10-02T09:54:14.610Z,37.64
2023-10-02T09:57:06.690Z,37.33
2023-10-02T09:59:49.464Z,37.13
2023-10-02T10:02:24.408Z,36.80
2023-10-02T10:05:23.459Z,36.21
2023-10-02T10:07:53.109Z,36.61
2023-10-02T10:10:47.275Z,37.05
2023-10-02T10:13:35.395Z,38.10
2023-10-02T10:16:20.561Z,36.53
2023-10-02T10:19:19.297Z,35.51
2023-10-02T10:21:59.398Z,35.95
2023-10-02T10:24:58.646Z,37.46
2023-10-02T10:27:43.425Z,36.92
2023-10-02T10:30:28.484Z,36.80
2023-10-02T10:33:10.536Z,37.45
2023-10-02T10:35:53.058Z,36.61
2023-10-02T10:38:29.043Z,36.37
2023-10-02T10:41:02.530Z,36.76
2023-10-02T10:43:53.723Z,36.93
2023-10-02T10:46:21.725Z,36.35
2023-10-02T10:49:05.104Z,36.09
2023-10-02T10:51:35.455Z,36.92
2023-10-02T10:54:31.226Z,36.69
2023-10-02T10:57:36.199Z,36.73
2023-10-02T11:00:27.462Z,37.69
2023-10-02T11:03:15.490Z,37.36
2023-10-02T11:05:43.431Z,37.56
2023-10-02T11:08:29.693Z,37.09
2023-10-02T11:11:26.940Z,37.83
2023-10-02T11:14:02.064Z,37.22
2023-10-02T11:16:37.661Z,37.86
2023-10-02T11:19:23.228Z,38.53
2023-10-02T11:22:23.120Z,37.73
2023-10-02T11:24:54.122Z,38.81
2023-10-02T11:27:22.994Z,38.48
2023-10-02T11:30:04.753Z,38.15
2023-10-02T11:33:20.847Z,39.30
2023-10-02T11:35:48.029Z,37.93
2023-10-02T11:38:19.552Z,38.71
2023-10-02T11:40:46.616Z,39.51
2023-10-02T12:19:53.311Z,40.69
2023-10-02T12:27:54.519Z,40.09
2023-10-02T12:30:21.757Z,39.62
2023-10-02T12:32:51.692Z,39.74
2023-10-02T12:35:20.070Z,39.83
2023-10-02T12:37:47.306Z,40.18
2023-10-02T12:40:20.158Z,40.86
2023-10-02T12:42:47.270Z,40.53
2023-10-02T12:45:15.302Z,40.47
2023-10-02T12:47:42.463Z,40.52
2023-10-02T12:50:12.789Z,42.03
2023-10-02T12:52:40.166Z,41.49
2023-10-02T12:55:07.523Z,40.69
2023-10-02T12:57:39.851Z,41.53
2023-10-02T13:00:18.484Z,40.52
2023-10-02T13:02:46.480Z,40.84
2023-10-02T13:05:13.725Z,41.24
2023-10-02T13:07:41.552Z,41.61
2023-10-02T13:10:10.259Z,41.50
2023-10-02T13:12:37.310Z,42.02
2023-10-02T13:15:04.732Z,41.83
2023-10-02T13:17:33.436Z,42.53
2023-10-02T13:20:01.123Z,43.23
2023-10-02T13:22:28.347Z,42.97
2023-10-02T13:24:55.393Z,42.40
2023-10-02T13:27:23.049Z,43.00
2023-10-02T13:29:52.635Z,43.45
2023-10-02T13:32:20.541Z,44.06
2023-10-02T13:34:49.098Z,44.24
2023-10-02T13:37:15.979Z,43.78
2023-10-02T13:39:43.207Z,43.36
2023-10-02T13:42:10.153Z,42.91
2023-10-02T13:44:37.043Z,43.64
2023-10-02T13:47:08.780Z,43.81
2023-10-02T13:49:38.708Z,43.48
2023-10-02T13:52:07.310Z,42.77
2023-10-02T13:54:34.697Z,42.86
2023-10-02T13:57:04.047Z,43.99
2023-10-02T13:59:32.772Z,44.83
2023-10-02T14:02:00.963Z,44.65
2023-10-02T14:04:30.315Z,45.32
2023-10-02T14:06:57.726Z,45.89
2023-10-02T14:09:25.766Z,45.92
2023-10-02T14:11:53.527Z,45.42
2023-10-02T14:14:20.518Z,44.81
2023-10-02T14:16:47.657Z,44.22
2023-10-02T14:19:14.600Z,44.45
2023-10-02T14:21:41.424Z,44.68
2023-10-02T14:24:11.027Z,45.20
2023-10-02T14:26:38.624Z,45.50
2023-10-02T14:29:13.354Z,45.69
2023-10-02T14:31:40.566Z,46.30
2023-10-02T14:34:08.373Z,45.75
2023-10-02T14:36:35.539Z,45.73
2023-10-02T14:39:05.577Z,45.93
2023-10-02T14:41:32.893Z,46.65
2023-10-02T14:43:59.961Z,46.53
2023-10-02T14:46:26.885Z,46.84
2023-10-02T14:48:54.821Z,46.76
2023-10-02T14:51:21.956Z,47.26
2023-10-02T14:53:48.818Z,46.72
2023-10-02T14:56:15.700Z,46.69
2023-10-02T14:58:48.964Z,46.72
2023-10-02T15:01:19.207Z,46.76
2023-10-02T15:03:48.919Z,47.60
2023-10-02T15:06:16.121Z,47.69
2023-10-02T15:08:43.386Z,47.67
2023-10-02T15:11:16.112Z,48.34
2023-10-02T15:13:44.116Z,48.87
2023-10-02T15:16:13.725Z,49.16
2023-10-02T15:18:41.453Z,48.64
2023-10-02T15:21:09.474Z,48.49
2023-10-02T15:23:36.468Z,48.86
2023-10-02T15:26:04.185Z,49.43
2023-10-02T15:28:32.547Z,49.49
2023-10-02T15:30:59.921Z,49.79
2023-10-02T15:33:27.393Z,49.83
2023-10-02T15:35:54.501Z,49.93
2023-10-02T15:38:21.637Z,50.54
2023-10-02T15:40:48.932Z,50.91
2023-10-02T15:43:16.584Z,50.93
2023-10-02T15:45:46.584Z,50.59
2023-10-02T15:48:13.601Z,50.94
2023-10-02T15:50:41.788Z,51.25
2023-10-02T15:53:08.940Z,53.55
2023-10-02T15:55:35.856Z,53.21
2023-10-02T15:58:03.097Z,53.78
2023-10-02T16:00:30.316Z,54.80
2023-10-02T16:03:01.956Z,55.29
2023-10-02T16:05:30.815Z,56.66
2023-10-02T16:07:58.152Z,56.88
2023-10-02T16:10:26.346Z,58.31
2023-10-02T16:12:54.286Z,58.76
2023-10-02T16:15:24.984Z,59.09
2023-10-02T16:17:55.091Z,59.37
2023-10-02T16:20:24.022Z,59.44
2023-10-02T16:22:55.692Z,60.87
2023-10-02T16:25:22.906Z,61.84
2023-10-02T16:27:52.154Z,62.17
2023-10-02T16:30:22.020Z,62.80
2023-10-02T16:32:50.453Z,63.55
2023-10-02T16:35:20.190Z,63.87
2023-10-02T16:37:49.688Z,65.33
2023-10-02T16:40:20.471Z,65.57
2023-10-02T16:42:48.629Z,66.69
2023-10-02T16:45:18.297Z,67.44
2023-10-02T16:47:46.820Z,68.81
2023-10-02T16:50:15.437Z,69.24
2023-10-02T16:52:45.708Z,69.72
2023-10-02T16:55:25.008Z,72.59
2023-10-02T16:57:52.390Z,72.59
2023-10-02T17:00:22.242Z,73.37
2023-10-02T17:02:52.438Z,73.67
2023-10-02T17:05:20.660Z,73.60
2023-10-02T17:07:51.102Z,74.02
2023-10-02T17:10:25.227Z,73.95
2023-10-02T17:12:57.341Z,73.50
2023-10-02T17:15:24.606Z,73.60
2023-10-02T17:17:51.891Z,74.01
2023-10-02T17:20:22.337Z,74.64
2023-10-02T17:22:50.945Z,74.82
2023-10-02T17:25:26.457Z,74.70
2023-10-02T17:28:00.211Z,75.36
2023-10-02T17:30:28.211Z,75.83
2023-10-02T17:32:56.942Z,76.40
2023-10-02T17:35:24.601Z,76.90
2023-10-02T17:37:52.373Z,78.03
2023-10-02T17:40:22.095Z,78.19
2023-10-02T17:42:49.525Z,78.96
2023-10-02T17:45:16.646Z,79.64
2023-10-02T17:47:46.016Z,80.41
2023-10-02T17:50:14.683Z,80.98
2023-10-02T17:52:42.901Z,81.95
2023-10-02T17:55:10.702Z,81.92
2023-10-02T17:57:38.090Z,82.98
2023-10-02T18:00:05.545Z,85.09
2023-10-02T18:02:36.450Z,85.94
2023-10-02T18:05:04.791Z,86.83
2023-10-02T18:07:32.504Z,88.03
2023-10-02T18:09:59.502Z,85.52
2023-10-02T18:12:26.624Z,86.12
2023-10-02T18:14:53.734Z,85.78
2023-10-02T18:17:20.729Z,85.62
2023-10-02T18:19:48.580Z,86.52
2023-10-02T18:22:16.158Z,86.96
2023-10-02T18:24:43.922Z,86.64
2023-10-02T18:27:11.789Z,86.75
2023-10-02T18:29:39.277Z,86.70
2023-10-02T18:32:06.362Z,86.95
2023-10-02T18:34:43.671Z,86.88
2023-10-02T18:37:12.585Z,86.68
2023-10-02T18:39:39.766Z,87.10
2023-10-02T18:42:06.686Z,86.95
2023-10-02T18:44:40.047Z,88.10
2023-10-02T18:47:08.337Z,88.20
2023-10-02T18:49:36.896Z,88.63
2023-10-02T18:52:05.218Z,89.43
2023-10-02T18:54:32.752Z,89.43
2023-10-02T18:57:00.437Z,91.19
2023-10-02T18:59:27.795Z,90.90
2023-10-02T19:01:54.771Z,91.88
2023-10-02T19:04:22.761Z,91.29
2023-10-02T19:06:49.954Z,91.47
2023-10-02T19:09:19.080Z,90.63
2023-10-02T19:11:49.424Z,89.53
2023-10-02T19:14:19.137Z,90.67
2023-10-02T19:16:46.216Z,91.56
2023-10-02T19:19:13.330Z,91.22
2023-10-02T19:21:40.306Z,90.20
2023-10-02T19:24:09.942Z,90.05
2023-10-02T19:26:37.748Z,89.88
2023-10-02T19:29:05.035Z,92.42
2023-10-02T19:31:32.295Z,92.52
2023-10-02T19:33:59.413Z,92.37
2023-10-02T19:36:26.519Z,92.47
2023-10-02T19:38:53.557Z,92.36
2023-10-02T19:41:21.249Z,92.54
2023-10-02T19:43:52.655Z,93.14
2023-10-02T19:46:19.685Z,94.09
2023-10-02T19:48:47.366Z,95.34
2023-10-02T19:51:15.808Z,93.99
2023-10-02T19:53:43.738Z,93.79
2023-10-02T19:56:13.594Z,93.72
2023-10-02T19:58:40.807Z,93.32
2023-10-02T20:04:32.905Z,91.99
2023-10-02T20:07:00.998Z,90.56
2023-10-02T20:09:27.873Z,91.36
2023-10-02T20:11:55.265Z,90.96
2023-10-02T20:14:22.408Z,91.21
2023-10-02T20:16:50.770Z,90.37
2023-10-02T20:19:18.918Z,91.44
2023-10-02T20:21:46.252Z,91.26
2023-10-02T20:24:19.116Z,92.03
2023-10-02T20:26:47.845Z,91.59
2023-10-02T20:29:15.441Z,92.07
2023-10-02T20:31:44.409Z,92.32
2023-10-02T20:34:26.171Z,92.71
2023-10-02T20:37:00.728Z,92.31
2023-10-02T20:39:28.687Z,93.55
2023-10-02T20:41:56.319Z,93.40
2023-10-02T20:44:23.316Z,93.67
2023-10-02T20:46:56.240Z,95.24
2023-10-02T20:49:30.137Z,93.96
2023-10-02T20:51:57.169Z,93.24
2023-10-02T20:54:24.272Z,93.21
2023-10-02T20:56:51.155Z,93.48
2023-10-02T20:59:20.665Z,93.48
2023-10-02T21:01:48.577Z,93.30
2023-10-02T21:04:15.884Z,93.76
2023-10-02T21:06:42.746Z,92.96
2023-10-02T21:09:09.707Z,93.08
2023-10-02T21:11:36.755Z,93.99
2023-10-02T21:14:04.605Z,93.81
2023-10-02T21:16:32.486Z,93.83
2023-10-02T21:18:59.858Z,94.22
2023-10-02T21:21:26.812Z,94.19
2023-10-02T21:23:53.626Z,94.65
2023-10-02T21:26:20.597Z,95.20
2023-10-02T21:28:47.461Z,95.76
2023-10-02T21:31:14.821Z,95.92
2023-10-02T21:33:41.781Z,96.54
2023-10-02T21:36:08.956Z,95.97
2023-10-02T21:38:41.574Z,95.61
2023-10-02T21:41:17.022Z,96.16
2023-10-02T21:43:47.221Z,97.02
2023-10-02T21:46:14.697Z,96.06
2023-10-02T21:48:42.505Z,96.61
2023-10-02T21:51:11.259Z,96.41
2023-10-02T21:53:42.041Z,96.32
2023-10-02T21:56:17.767Z,95.77
2023-10-02T21:58:45.739Z,95.31
2023-10-02T22:01:18.143Z,95.36
2023-10-02T22:03:45.487Z,95.94
2023-10-02T22:06:12.593Z,95.82
2023-10-02T22:08:43.086Z,96.22
2023-10-02T22:11:10.659Z,96.27
2023-10-02T22:13:37.719Z,96.59
2023-10-02T22:16:05.838Z,96.40
2023-10-02T22:18:33.071Z,96.39
2023-10-02T22:21:01.919Z,97.03
2023-10-02T22:23:35.162Z,97.03
2023-10-02T22:26:04.322Z,96.80
2023-10-02T22:28:31.727Z,97.08
2023-10-02T22:31:03.028Z,96.66
2023-10-02T22:33:30.881Z,96.96
2023-10-02T22:35:57.941Z,98.52
2023-10-02T22:38:25.001Z,98.50
2023-10-02T22:40:52.221Z,98.04
2023-10-02T22:43:19.098Z,98.29
2023-10-02T22:45:46.451Z,98.01
2023-10-02T22:48:15.415Z,97.46
2023-10-02T22:50:47.674Z,97.43
2023-10-02T22:53:14.611Z,97.19
2023-10-02T22:55:43.431Z,98.03
2023-10-02T22:58:10.382Z,97.12
2023-10-02T23:00:37.443Z,96.86
2023-10-02T23:03:06.880Z,97.84
2023-10-02T23:05:34.392Z,98.09
2023-10-02T23:08:01.316Z,98.45
2023-10-02T23:10:29.104Z,100.00
2023-10-02T23:12:56.750Z,100.00
2023-10-02T23:15:24.763Z,100.00
2023-10-02T23:17:53.129Z,100.00
2023-10-02T23:20:21.824Z,100.00
2023-10-02T23:22:50.050Z,100.00
2023-10-02T23:25:19.775Z,100.00
2023-10-02T23:27:52.881Z,100.00
2023-10-02T23:30:22.151Z,100.00
2023-10-02T23:32:51.548Z,100.00
2023-10-02T23:35:19.814Z,100.00
2023-10-02T23:37:47.358Z,99.87
2023-10-02T23:40:16.578Z,99.83
2023-10-02T23:42:43.465Z,99.70
2023-10-02T23:45:15.581Z,99.88
2023-10-02T23:47:46.599Z,99.70
2023-10-02T23:50:18.132Z,98.87
2023-10-02T23:52:48.765Z,98.45
2023-10-02T23:55:17.038Z,98.43
2023-10-02T23:57:44.569Z,98.54
